Time;durP1;ratioP1;P1;durP2;ratioP2;P2;SDS_P1;SDS_P2;PMS_P1;PMS_P2;Temp;Humidity;BMP_temperature;BMP_pressure;BME280_temperature;BME280_humidity;BME280_pressure;Samples;Min_cycle;Max_cycle;Signal;HPM_P1;HPM_P2
2022/12/12 00:02:13;;;;;;;;;;;0.60;99.90;;;;;;5002436;28;192465;-72
2022/12/12 00:04:39;;;;;;;;;;;0.60;99.90;;;;;;5012056;28;19920;-72
2022/12/12 00:07:05;;;;;;;;;;;0.60;99.90;;;;;;5017743;28;178453;-72
2022/12/12 00:09:31;;;;;;;;;;;0.60;99.90;;;;;;5069072;28;19959;-72
2022/12/12 00:11:57;;;;;;;;;;;0.60;99.90;;;;;;5005048;28;206766;-71
2022/12/12 00:14:23;;;;;;;;;;;0.60;99.90;;;;;;5029260;28;19978;-72
2022/12/12 00:16:49;;;;;;;;;;;0.60;99.90;;;;;;5034039;28;216013;-71
2022/12/12 00:19:15;;;;;;;;;;;0.60;99.90;;;;;;5055737;28;19920;-71
2022/12/12 00:21:42;;;;;;;;;;;0.60;99.90;;;;;;5065509;28;207182;-72
2022/12/12 00:24:10;;;;;;;;;;;0.60;99.90;;;;;;5046765;28;203918;-73
2022/12/12 00:26:36;;;;;;;;;;;0.60;99.90;;;;;;5081859;28;19928;-73
2022/12/12 00:29:02;;;;;;;;;;;0.60;99.90;;;;;;5035142;28;167222;-72
2022/12/12 00:31:29;;;;;;;;;;;0.60;99.90;;;;;;5046997;28;19929;-72
2022/12/12 00:33:55;;;;;;;;;;;0.60;99.90;;;;;;5037323;28;137506;-73
2022/12/12 00:36:23;;;;;;;;;;;0.60;99.90;;;;;;5048382;28;19928;-72
2022/12/12 00:38:50;;;;;;;;;;;0.60;99.90;;;;;;5022297;27;211134;-73
2022/12/12 00:41:16;;;;;;;;;;;0.60;99.90;;;;;;5069873;28;20389;-72
2022/12/12 00:43:42;;;;;;;;;;;0.60;99.90;;;;;;5024735;27;212102;-72
2022/12/12 00:46:09;;;;;;;;;;;0.60;99.90;;;;;;5062129;28;19921;-72
2022/12/12 00:48:35;;;;;;;;;;;0.60;99.90;;;;;;5000876;28;210608;-72
2022/12/12 00:51:07;;;;;;;;;;;0.60;99.90;;;;;;5064673;28;19928;-72
2022/12/12 00:53:33;;;;;;;;;;;0.60;99.90;;;;;;5001058;28;142400;-72
2022/12/12 00:55:59;;;;;;;;;;;0.60;99.90;;;;;;5049599;28;20301;-72
2022/12/12 00:58:25;;;;;;;;;;;0.60;99.90;;;;;;5005683;28;208916;-72
2022/12/12 01:00:51;;;;;;;;;;;0.60;99.90;;;;;;5061483;28;19947;-72
2022/12/12 01:03:18;;;;;;;;;;;0.60;99.90;;;;;;5011116;28;210414;-72
2022/12/12 01:05:44;;;;;;;;;;;0.50;99.90;;;;;;5076426;28;19924;-72
2022/12/12 01:08:10;;;;;;;;;;;0.60;99.90;;;;;;5016300;28;208161;-72
2022/12/12 01:10:37;;;;;;;;;;;0.60;99.90;;;;;;5067082;28;19925;-72
2022/12/12 01:13:03;;;;;;;;;;;0.60;99.90;;;;;;5005358;28;190212;-72
2022/12/12 01:15:29;;;;;;;;;;;0.50;99.90;;;;;;5041687;28;19998;-73
2022/12/12 01:17:55;;;;;;;;;;;0.50;99.90;;;;;;5019113;28;188570;-72
2022/12/12 01:20:25;;;;;;;;;;;0.50;99.90;;;;;;5046590;28;19932;-72
2022/12/12 01:22:51;;;;;;;;;;;0.50;99.90;;;;;;5023646;28;152596;-72
2022/12/12 01:25:18;;;;;;;;;;;0.50;99.90;;;;;;5073852;28;19943;-71
2022/12/12 01:27:44;;;;;;;;;;;0.60;99.90;;;;;;5038881;28;152722;-71
2022/12/12 01:30:11;;;;;;;;;;;0.50;99.90;;;;;;5047068;28;19928;-72
2022/12/12 01:32:37;;;;;;;;;;;0.60;99.90;;;;;;5027462;28;213821;-72
2022/12/12 01:35:07;;;;;;;;;;;0.60;99.90;;;;;;5064239;28;20373;-72
2022/12/12 01:37:33;;;;;;;;;;;0.60;99.90;;;;;;5022049;28;180922;-71
2022/12/12 01:39:59;;;;;;;;;;;0.50;99.90;;;;;;5067754;28;19924;-71
2022/12/12 01:42:27;;;;;;;;;;;0.60;99.90;;;;;;5014546;28;207583;-71
2022/12/12 01:44:53;;;;;;;;;;;0.50;99.90;;;;;;5086080;28;19920;-71
2022/12/12 01:47:20;;;;;;;;;;;0.50;99.90;;;;;;5017336;28;109653;-71
2022/12/12 01:49:50;;;;;;;;;;;0.50;99.90;;;;;;5050859;28;20308;-71
2022/12/12 01:52:22;;;;;;;;;;;0.60;99.90;;;;;;5016352;28;207438;-71
2022/12/12 01:54:51;;;;;;;;;;;0.50;99.90;;;;;;5048139;28;20010;-71
2022/12/12 01:57:23;;;;;;;;;;;0.50;99.90;;;;;;5073337;27;192783;-71
2022/12/12 01:59:49;;;;;;;;;;;0.60;99.90;;;;;;5064268;28;19920;-71
2022/12/12 02:02:14;;;;;;;;;;;0.60;99.90;;;;;;4992873;28;214101;-71
2022/12/12 02:04:41;;;;;;;;;;;0.50;99.90;;;;;;5064138;28;20015;-71
2022/12/12 02:07:07;;;;;;;;;;;0.50;99.90;;;;;;5015256;28;208568;-71
2022/12/12 02:09:33;;;;;;;;;;;0.50;99.90;;;;;;5063955;28;19923;-71
2022/12/12 02:11:59;;;;;;;;;;;0.50;99.90;;;;;;5017222;28;216722;-70
2022/12/12 02:14:27;;;;;;;;;;;0.60;99.90;;;;;;5042347;28;19920;-70
2022/12/12 02:17:12;;;;;;;;;;;0.60;99.90;;;;;;5051076;27;212900;-70
2022/12/12 02:19:41;;;;;;;;;;;0.50;99.90;;;;;;5070772;28;19921;-71
2022/12/12 02:22:17;;;;;;;;;;;0.60;99.90;;;;;;5023186;27;207921;-71
2022/12/12 02:24:43;;;;;;;;;;;0.60;99.90;;;;;;5037410;28;20392;-71
2022/12/12 02:27:09;;;;;;;;;;;0.60;99.90;;;;;;5016828;28;214866;-70
2022/12/12 02:29:54;;;;;;;;;;;0.60;99.90;;;;;;5065681;28;19931;-70
2022/12/12 02:32:32;;;;;;;;;;;0.50;99.90;;;;;;5025370;28;211120;-70
2022/12/12 02:35:04;;;;;;;;;;;0.50;99.90;;;;;;5087539;27;20417;-70
2022/12/12 02:37:36;;;;;;;;;;;0.50;99.90;;;;;;5022351;28;135848;-70
2022/12/12 02:40:08;;;;;;;;;;;0.50;99.90;;;;;;5064009;28;19931;-70
2022/12/12 02:42:53;;;;;;;;;;;0.50;99.90;;;;;;5027057;28;208483;-70
2022/12/12 02:45:28;;;;;;;;;;;0.40;99.90;;;;;;5064795;28;19934;-70
2022/12/12 02:48:24;;;;;;;;;;;0.50;99.90;;;;;;4999364;28;187128;-70
2022/12/12 02:50:52;;;;;;;;;;;0.50;99.90;;;;;;4982910;28;19988;-70
2022/12/12 02:53:19;;;;;;;;;;;0.50;99.90;;;;;;4973629;28;206300;-70
2022/12/12 02:55:45;;;;;;;;;;;0.50;99.90;;;;;;5003956;28;19932;-70
2022/12/12 02:58:11;;;;;;;;;;;0.50;99.90;;;;;;4966894;28;116124;-70
2022/12/12 03:00:45;;;;;;;;;;;0.50;99.90;;;;;;4996746;28;19932;-70
2022/12/12 03:09:42;;;;;;;;;;;0.50;99.90;;;;;;4883569;28;206346;-70
2022/12/12 03:12:16;;;;;;;;;;;0.50;99.90;;;;;;4902056;28;198412;-69
2022/12/12 03:14:56;;;;;;;;;;;0.50;99.90;;;;;;4945190;28;19930;-71
2022/12/12 03:17:25;;;;;;;;;;;0.50;99.90;;;;;;4907373;28;152869;-71
2022/12/12 03:20:11;;;;;;;;;;;0.50;99.90;;;;;;4942832;28;19933;-71
2022/12/12 03:22:37;;;;;;;;;;;0.50;99.90;;;;;;4843818;29;197878;-70
2022/12/12 03:25:06;;;;;;;;;;;0.40;99.90;;;;;;4881722;29;19927;-69
2022/12/12 03:27:38;;;;;;;;;;;0.40;99.90;;;;;;4868395;28;176633;-70
2022/12/12 03:30:06;;;;;;;;;;;0.40;99.90;;;;;;4929214;28;20268;-70
2022/12/12 03:32:38;;;;;;;;;;;0.40;99.90;;;;;;4899650;28;192477;-70
2022/12/12 03:35:11;;;;;;;;;;;0.40;99.90;;;;;;4928637;28;19951;-70
2022/12/12 03:37:39;;;;;;;;;;;0.40;99.90;;;;;;4894064;28;207490;-70
2022/12/12 03:40:18;;;;;;;;;;;0.40;99.90;;;;;;4928348;28;20399;-70
2022/12/12 03:42:52;;;;;;;;;;;0.50;99.90;;;;;;4904166;28;152772;-70
2022/12/12 03:45:21;;;;;;;;;;;0.50;99.90;;;;;;4976850;28;20346;-70
2022/12/12 03:47:59;;;;;;;;;;;0.50;99.90;;;;;;4933949;28;208481;-70
2022/12/12 03:50:41;;;;;;;;;;;0.50;99.90;;;;;;5004527;28;19928;-70
2022/12/12 03:53:09;;;;;;;;;;;0.50;99.90;;;;;;4921355;28;82004;-70
2022/12/12 03:55:38;;;;;;;;;;;0.50;99.90;;;;;;4976121;28;19925;-70
2022/12/12 03:58:08;;;;;;;;;;;0.50;99.90;;;;;;4921367;28;212246;-70
2022/12/12 04:00:36;;;;;;;;;;;0.50;99.90;;;;;;5040033;28;20357;-70
2022/12/12 04:03:09;;;;;;;;;;;0.50;99.90;;;;;;5019321;28;207811;-69
2022/12/12 04:08:35;;;;;;;;;;;0.50;99.90;;;;;;4999891;28;208116;-69
2022/12/12 04:14:07;;;;;;;;;;;0.50;99.90;;;;;;5017320;28;120641;-69
2022/12/12 04:16:36;;;;;;;;;;;0.50;99.90;;;;;;5063583;28;19935;-70
2022/12/12 04:19:07;;;;;;;;;;;0.50;99.90;;;;;;5009648;28;185428;-69
2022/12/12 04:24:44;;;;;;;;;;;0.50;99.90;;;;;;5007838;28;212077;-69
2022/12/12 04:27:21;;;;;;;;;;;0.50;99.90;;;;;;5020975;28;208734;-69
2022/12/12 04:29:54;;;;;;;;;;;0.50;99.90;;;;;;5060460;28;19920;-70
2022/12/12 04:32:22;;;;;;;;;;;0.50;99.90;;;;;;5015451;28;199735;-69
2022/12/12 04:34:48;;;;;;;;;;;0.50;99.90;;;;;;5050879;28;19931;-69
2022/12/12 04:37:18;;;;;;;;;;;0.40;99.90;;;;;;5017145;28;207857;-69
2022/12/12 04:39:46;;;;;;;;;;;0.40;99.90;;;;;;5065727;28;19929;-69
2022/12/12 04:42:15;;;;;;;;;;;0.40;99.90;;;;;;5009881;28;207650;-69
2022/12/12 04:44:42;;;;;;;;;;;0.40;99.90;;;;;;5079680;28;19927;-69
2022/12/12 04:47:08;;;;;;;;;;;0.40;99.90;;;;;;5034593;28;185153;-70
2022/12/12 04:49:36;;;;;;;;;;;0.40;99.90;;;;;;5082265;28;19923;-69
2022/12/12 04:52:04;;;;;;;;;;;0.40;99.90;;;;;;5013939;28;205509;-69
2022/12/12 04:54:40;;;;;;;;;;;0.40;99.90;;;;;;5047627;28;19924;-69
2022/12/12 04:57:08;;;;;;;;;;;0.40;99.90;;;;;;5005646;28;243671;-69
2022/12/12 04:59:34;;;;;;;;;;;0.40;99.90;;;;;;5045621;28;19968;-69
2022/12/12 05:02:18;;;;;;;;;;;0.50;99.90;;;;;;4995419;27;207648;-70
2022/12/12 05:04:47;;;;;;;;;;;0.40;99.90;;;;;;5048547;28;19928;-69
2022/12/12 05:07:16;;;;;;;;;;;0.50;99.90;;;;;;5042616;28;167510;-70
2022/12/12 05:09:42;;;;;;;;;;;0.50;99.90;;;;;;5046342;28;19935;-69
2022/12/12 05:12:08;;;;;;;;;;;0.50;99.90;;;;;;5048941;28;208158;-69
2022/12/12 05:14:35;;;;;;;;;;;0.50;99.90;;;;;;5061568;28;20009;-69
2022/12/12 05:17:12;;;;;;;;;;;0.40;99.90;;;;;;5030909;28;207871;-69
2022/12/12 05:19:38;;;;;;;;;;;0.40;99.90;;;;;;5057319;28;19933;-70
2022/12/12 05:22:05;;;;;;;;;;;0.50;99.90;;;;;;5026809;28;207951;-69
2022/12/12 05:24:31;;;;;;;;;;;0.40;99.90;;;;;;5057929;28;19924;-69
2022/12/12 05:26:58;;;;;;;;;;;0.40;99.90;;;;;;5061403;27;206635;-69
2022/12/12 05:29:24;;;;;;;;;;;0.50;99.90;;;;;;5048513;28;19924;-69
2022/12/12 05:31:50;;;;;;;;;;;0.50;99.90;;;;;;5025812;28;206736;-68
2022/12/12 05:34:16;;;;;;;;;;;0.50;99.90;;;;;;5016998;28;19931;-69
2022/12/12 05:36:42;;;;;;;;;;;0.50;99.90;;;;;;5050019;27;207862;-69
2022/12/12 05:39:08;;;;;;;;;;;0.50;99.90;;;;;;5013883;28;238894;-70
2022/12/12 05:41:34;;;;;;;;;;;0.50;99.90;;;;;;5097129;28;19921;-69
2022/12/12 05:44:00;;;;;;;;;;;0.50;99.90;;;;;;5008811;28;206560;-69
2022/12/12 05:46:26;;;;;;;;;;;0.50;99.90;;;;;;5049268;28;19946;-69
2022/12/12 05:48:52;;;;;;;;;;;0.50;99.90;;;;;;5006740;28;159194;-70
2022/12/12 05:51:18;;;;;;;;;;;0.50;99.90;;;;;;5064360;28;19928;-69
2022/12/12 05:53:46;;;;;;;;;;;0.50;99.90;;;;;;5034959;28;167873;-69
2022/12/12 05:56:12;;;;;;;;;;;0.50;99.90;;;;;;5071352;28;19924;-69
2022/12/12 05:58:38;;;;;;;;;;;0.50;99.90;;;;;;5030974;27;127426;-69
2022/12/12 06:01:05;;;;;;;;;;;0.40;99.90;;;;;;5045452;28;19931;-69
2022/12/12 06:03:31;;;;;;;;;;;0.40;99.90;;;;;;5034275;28;207212;-70
2022/12/12 06:05:57;;;;;;;;;;;0.40;99.90;;;;;;5066655;28;20336;-69
2022/12/12 06:08:23;;;;;;;;;;;0.40;99.90;;;;;;5034349;28;207763;-69
2022/12/12 06:10:49;;;;;;;;;;;0.40;99.90;;;;;;5066424;28;19954;-70
2022/12/12 06:13:15;;;;;;;;;;;0.40;99.90;;;;;;5021016;28;191311;-70
2022/12/12 06:15:41;;;;;;;;;;;0.40;99.90;;;;;;5053309;28;19931;-70
2022/12/12 06:18:08;;;;;;;;;;;0.40;99.90;;;;;;5019113;28;142198;-69
2022/12/12 06:20:34;;;;;;;;;;;0.40;99.90;;;;;;5081803;28;20313;-69
2022/12/12 06:23:00;;;;;;;;;;;0.40;99.90;;;;;;5017188;28;205251;-69
2022/12/12 06:25:26;;;;;;;;;;;0.40;99.90;;;;;;5058581;28;19928;-70
2022/12/12 06:27:51;;;;;;;;;;;0.40;99.90;;;;;;5020577;28;224559;-70
2022/12/12 06:30:17;;;;;;;;;;;0.40;99.90;;;;;;5059639;28;19927;-69
2022/12/12 06:32:43;;;;;;;;;;;0.40;99.90;;;;;;5011467;28;208702;-70
2022/12/12 06:35:10;;;;;;;;;;;0.40;99.90;;;;;;5038778;28;19940;-70
2022/12/12 06:37:36;;;;;;;;;;;0.40;99.90;;;;;;5014119;28;154474;-69
2022/12/12 06:40:02;;;;;;;;;;;0.40;99.90;;;;;;5043250;28;19932;-70
2022/12/12 06:42:28;;;;;;;;;;;0.40;99.90;;;;;;5012288;28;210215;-71
2022/12/12 06:44:54;;;;;;;;;;;0.40;99.90;;;;;;5057734;28;19920;-70
2022/12/12 06:47:20;;;;;;;;;;;0.40;99.90;;;;;;5015285;28;177668;-70
2022/12/12 06:49:46;;;;;;;;;;;0.40;99.90;;;;;;5047608;28;19981;-70
2022/12/12 06:52:12;;;;;;;;;;;0.30;99.90;;;;;;5011434;28;205416;-70
2022/12/12 06:54:38;;;;;;;;;;;0.30;99.90;;;;;;5064906;28;20364;-71
2022/12/12 06:57:04;;;;;;;;;;;0.40;99.90;;;;;;5009909;27;215098;-70
2022/12/12 06:59:30;;;;;;;;;;;0.30;99.90;;;;;;5062257;28;20424;-70
2022/12/12 07:01:57;;;;;;;;;;;0.40;99.90;;;;;;4999380;28;209083;-69
2022/12/12 07:04:24;;;;;;;;;;;0.40;99.90;;;;;;5046928;28;19929;-70
2022/12/12 07:06:50;;;;;;;;;;;0.40;99.90;;;;;;5024182;28;212930;-69
2022/12/12 07:09:16;;;;;;;;;;;0.30;99.90;;;;;;5068423;28;20305;-69
2022/12/12 07:11:42;;;;;;;;;;;0.40;99.90;;;;;;5050324;28;208084;-69
2022/12/12 07:14:08;;;;;;;;;;;0.40;99.90;;;;;;5023520;28;118779;-69
2022/12/12 07:16:34;;;;;;;;;;;0.40;99.90;;;;;;5096814;28;19929;-69
2022/12/12 07:19:00;;;;;;;;;;;0.40;99.90;;;;;;4997744;28;207073;-69
2022/12/12 07:21:26;;;;;;;;;;;0.40;99.90;;;;;;5074518;28;19963;-69
2022/12/12 07:23:52;;;;;;;;;;;0.40;99.90;;;;;;4999126;28;208897;-69
2022/12/12 07:26:20;;;;;;;;;;;0.40;99.90;;;;;;5075683;28;19931;-68
2022/12/12 07:28:46;;;;;;;;;;;0.40;99.90;;;;;;5028992;28;139483;-69
2022/12/12 07:31:13;;;;;;;;;;;0.40;99.90;;;;;;5061220;28;19921;-68
2022/12/12 07:33:40;;;;;;;;;;;0.40;99.90;;;;;;5020941;28;191738;-68
2022/12/12 07:36:06;;;;;;;;;;;0.40;99.90;;;;;;5062524;28;19947;-68
2022/12/12 07:38:32;;;;;;;;;;;0.40;99.90;;;;;;5005080;28;149068;-68
2022/12/12 07:41:06;;;;;;;;;;;0.40;99.90;;;;;;5071950;28;19921;-68
2022/12/12 07:43:35;;;;;;;;;;;0.40;99.90;;;;;;4999787;28;200105;-68
2022/12/12 07:46:01;;;;;;;;;;;0.40;99.90;;;;;;5062057;28;20336;-68
2022/12/12 07:48:27;;;;;;;;;;;0.40;99.90;;;;;;5007035;28;209182;-68
2022/12/12 07:50:53;;;;;;;;;;;0.40;99.90;;;;;;5061410;28;19924;-68
2022/12/12 07:53:19;;;;;;;;;;;0.30;99.90;;;;;;5043324;28;108719;-69
2022/12/12 07:55:45;;;;;;;;;;;0.30;99.90;;;;;;5065217;28;19924;-69
2022/12/12 07:58:11;;;;;;;;;;;0.30;99.90;;;;;;5021089;28;129887;-69
2022/12/12 08:00:38;;;;;;;;;;;0.30;99.90;;;;;;5048396;28;19983;-68
2022/12/12 08:03:04;;;;;;;;;;;0.20;99.90;;;;;;5010348;28;160967;-68
2022/12/12 08:05:30;;;;;;;;;;;0.20;99.90;;;;;;5052942;28;19920;-68
2022/12/12 08:07:55;;;;;;;;;;;0.20;99.90;;;;;;5014090;28;91043;-68
2022/12/12 08:10:21;;;;;;;;;;;0.30;99.90;;;;;;5080714;28;19920;-68
2022/12/12 08:12:47;;;;;;;;;;;0.30;99.90;;;;;;5035069;27;153161;-68
2022/12/12 08:15:15;;;;;;;;;;;0.30;99.90;;;;;;5044189;28;20401;-69
2022/12/12 08:17:41;;;;;;;;;;;0.40;99.90;;;;;;4995101;28;161726;-69
2022/12/12 08:20:08;;;;;;;;;;;0.30;99.90;;;;;;5047071;28;19924;-69
2022/12/12 08:22:33;;;;;;;;;;;0.30;99.90;;;;;;5032719;28;137221;-69
2022/12/12 08:24:59;;;;;;;;;;;0.30;99.90;;;;;;5032213;28;19983;-69
2022/12/12 08:27:26;;;;;;;;;;;0.40;99.90;;;;;;5036652;28;154808;-69
2022/12/12 08:29:52;;;;;;;;;;;0.40;99.90;;;;;;5043074;28;20317;-69
2022/12/12 08:32:18;;;;;;;;;;;0.40;99.90;;;;;;5015248;28;208175;-69
2022/12/12 08:34:44;;;;;;;;;;;0.40;99.90;;;;;;5032263;28;20306;-69
2022/12/12 08:37:10;;;;;;;;;;;0.40;99.90;;;;;;5011442;28;219275;-69
2022/12/12 08:39:37;;;;;;;;;;;0.50;99.90;;;;;;5051332;28;19928;-69
2022/12/12 08:42:03;;;;;;;;;;;0.50;99.90;;;;;;5014944;27;208066;-70
2022/12/12 08:44:29;;;;;;;;;;;0.50;99.90;;;;;;5045715;28;19925;-68
2022/12/12 08:46:55;;;;;;;;;;;0.60;99.90;;;;;;5012987;27;206965;-68
2022/12/12 08:49:20;;;;;;;;;;;0.60;99.90;;;;;;5036756;28;19924;-68
2022/12/12 08:51:46;;;;;;;;;;;0.60;99.90;;;;;;5047532;28;223817;-67
2022/12/12 08:54:13;;;;;;;;;;;0.70;99.90;;;;;;5020618;28;19932;-68
2022/12/12 08:56:39;;;;;;;;;;;0.70;99.90;;;;;;5052600;28;19928;-68
2022/12/12 08:59:05;;;;;;;;;;;0.70;99.90;;;;;;5004974;28;204671;-68
2022/12/12 09:01:31;;;;;;;;;;;0.70;99.90;;;;;;5072118;28;19921;-68
2022/12/12 09:03:57;;;;;;;;;;;0.70;99.90;;;;;;5010894;28;208628;-68
2022/12/12 09:06:24;;;;;;;;;;;0.70;99.90;;;;;;5101269;27;19932;-68
2022/12/12 09:08:51;;;;;;;;;;;0.80;99.90;;;;;;5019350;28;107408;-68
2022/12/12 09:11:17;;;;;;;;;;;0.80;99.90;;;;;;5049964;28;19925;-69
2022/12/12 09:13:43;;;;;;;;;;;0.80;99.90;;;;;;5003620;28;207452;-68
2022/12/12 09:16:10;;;;;;;;;;;0.80;99.90;;;;;;5069329;28;19921;-69
2022/12/12 09:18:36;;;;;;;;;;;0.80;99.90;;;;;;5009508;28;135739;-69
2022/12/12 09:21:03;;;;;;;;;;;0.80;99.90;;;;;;5095132;27;19920;-69
2022/12/12 09:23:29;;;;;;;;;;;0.90;99.90;;;;;;4991225;28;209261;-69
2022/12/12 09:25:55;;;;;;;;;;;0.90;99.90;;;;;;5043231;28;20305;-69
2022/12/12 09:28:22;;;;;;;;;;;0.90;99.90;;;;;;5025060;28;208482;-69
2022/12/12 09:30:48;;;;;;;;;;;1.00;99.90;;;;;;5063117;28;20424;-69
2022/12/12 09:33:15;;;;;;;;;;;1.00;99.90;;;;;;5006647;28;152200;-69
2022/12/12 09:35:41;;;;;;;;;;;1.10;99.90;;;;;;5056653;28;19921;-69
2022/12/12 09:38:07;;;;;;;;;;;1.10;99.90;;;;;;5030715;28;140377;-69
2022/12/12 09:40:53;;;;;;;;;;;1.10;99.90;;;;;;5071241;28;20438;-69
2022/12/12 09:43:21;;;;;;;;;;;1.20;99.90;;;;;;5002316;28;204216;-69
2022/12/12 09:45:47;;;;;;;;;;;1.20;99.90;;;;;;5071310;28;19928;-68
2022/12/12 09:48:21;;;;;;;;;;;1.30;99.90;;;;;;5028428;28;19920;-68
2022/12/12 09:50:48;;;;;;;;;;;1.30;99.90;;;;;;5052949;28;19924;-68
2022/12/12 09:53:15;;;;;;;;;;;1.40;99.90;;;;;;5002560;28;210515;-69
2022/12/12 09:56:01;;;;;;;;;;;1.50;99.90;;;;;;5059177;28;19932;-68
2022/12/12 09:58:27;;;;;;;;;;;1.50;99.90;;;;;;5004744;28;208378;-69
2022/12/12 10:00:53;;;;;;;;;;;1.50;99.90;;;;;;5062476;28;20386;-70
2022/12/12 10:03:25;;;;;;;;;;;1.60;99.90;;;;;;5014281;28;138774;-70
2022/12/12 10:06:03;;;;;;;;;;;1.60;99.90;;;;;;5067385;28;19931;-69
2022/12/12 10:08:31;;;;;;;;;;;1.70;99.90;;;;;;5010411;28;203168;-69
2022/12/12 10:11:03;;;;;;;;;;;1.80;99.90;;;;;;5063472;28;19921;-69
2022/12/12 10:13:30;;;;;;;;;;;1.90;99.90;;;;;;5021092;28;169968;-69
2022/12/12 10:15:58;;;;;;;;;;;1.90;99.90;;;;;;5066579;28;19921;-69
2022/12/12 10:18:42;;;;;;;;;;;2.00;99.90;;;;;;5027884;27;205803;-69
2022/12/12 10:21:13;;;;;;;;;;;2.00;99.90;;;;;;5096489;27;20406;-69
2022/12/12 10:23:42;;;;;;;;;;;2.10;99.90;;;;;;4983394;28;213645;-69
2022/12/12 10:26:15;;;;;;;;;;;2.10;99.90;;;;;;5090111;27;19920;-69
2022/12/12 10:28:41;;;;;;;;;;;2.10;99.90;;;;;;5020398;28;112670;-69
2022/12/12 10:31:14;;;;;;;;;;;2.10;99.90;;;;;;5065023;28;20444;-69
2022/12/12 10:33:52;;;;;;;;;;;2.10;99.90;;;;;;5007249;28;208679;-69
2022/12/12 10:36:27;;;;;;;;;;;2.10;99.90;;;;;;5097891;27;19920;-69
2022/12/12 10:38:53;;;;;;;;;;;2.10;99.90;;;;;;5009534;28;146714;-69
2022/12/12 10:41:30;;;;;;;;;;;2.10;99.90;;;;;;5068795;28;19927;-69
2022/12/12 10:43:57;;;;;;;;;;;2.10;99.90;;;;;;5029543;28;212480;-69
2022/12/12 10:46:23;;;;;;;;;;;2.10;99.90;;;;;;5095365;28;19925;-69
2022/12/12 10:48:49;;;;;;;;;;;2.10;99.90;;;;;;5031487;28;204053;-69
2022/12/12 10:51:17;;;;;;;;;;;2.20;99.90;;;;;;5066287;28;19920;-69
2022/12/12 10:53:43;;;;;;;;;;;2.20;99.90;;;;;;5021862;28;134148;-70
2022/12/12 10:56:11;;;;;;;;;;;2.30;99.90;;;;;;5065922;28;20336;-70
2022/12/12 10:58:42;;;;;;;;;;;2.30;99.90;;;;;;5003206;28;192831;-70
2022/12/12 11:01:23;;;;;;;;;;;2.30;99.90;;;;;;5089184;28;19924;-70
2022/12/12 11:03:50;;;;;;;;;;;2.20;99.90;;;;;;4994671;28;211888;-70
2022/12/12 11:06:36;;;;;;;;;;;2.30;99.90;;;;;;5094347;28;19943;-70
2022/12/12 11:09:06;;;;;;;;;;;2.30;99.90;;;;;;5041295;28;210733;-69
2022/12/12 11:11:32;;;;;;;;;;;2.30;99.90;;;;;;5066397;28;19999;-69
2022/12/12 11:14:00;;;;;;;;;;;2.40;99.90;;;;;;4965105;28;186156;-69
2022/12/12 11:16:38;;;;;;;;;;;2.50;99.90;;;;;;5070782;28;19924;-69
2022/12/12 11:19:25;;;;;;;;;;;2.60;99.90;;;;;;5009707;28;151965;-69
2022/12/12 11:21:52;;;;;;;;;;;2.60;99.90;;;;;;5024272;28;209886;-69
2022/12/12 11:24:19;;;;;;;;;;;2.70;99.90;;;;;;5050353;28;19921;-69
2022/12/12 11:26:49;;;;;;;;;;;2.70;99.90;;;;;;5053065;28;207459;-69
2022/12/12 11:29:33;;;;;;;;;;;2.70;99.90;;;;;;5016504;28;20392;-69
2022/12/12 11:32:00;;;;;;;;;;;2.70;99.90;;;;;;5018235;28;209703;-70
2022/12/12 11:34:27;;;;;;;;;;;2.70;99.90;;;;;;5043088;28;19921;-70
2022/12/12 11:36:53;;;;;;;;;;;2.80;99.90;;;;;;5017579;27;207322;-69
2022/12/12 11:39:20;;;;;;;;;;;2.80;99.90;;;;;;5049450;28;19928;-69
2022/12/12 11:42:04;;;;;;;;;;;2.80;99.90;;;;;;5046054;28;215234;-69
2022/12/12 11:44:32;;;;;;;;;;;2.80;99.90;;;;;;5014714;28;19921;-70
2022/12/12 11:47:14;;;;;;;;;;;2.80;99.90;;;;;;5037765;28;206601;-70
2022/12/12 11:49:45;;;;;;;;;;;2.80;99.90;;;;;;5064079;28;19929;-70
2022/12/12 11:52:21;;;;;;;;;;;2.80;99.90;;;;;;5007463;28;215238;-70
2022/12/12 11:54:47;;;;;;;;;;;2.80;99.90;;;;;;5048342;28;19924;-70
2022/12/12 11:57:31;;;;;;;;;;;2.70;99.90;;;;;;5018289;28;207738;-70
2022/12/12 11:59:57;;;;;;;;;;;2.70;99.90;;;;;;5058794;28;19928;-71
2022/12/12 12:02:32;;;;;;;;;;;2.70;99.90;;;;;;5038221;27;139716;-70
2022/12/12 12:05:22;;;;;;;;;;;2.70;99.90;;;;;;5075467;28;20305;-70
2022/12/12 12:07:48;;;;;;;;;;;2.70;99.90;;;;;;5008536;28;149147;-71
2022/12/12 12:10:21;;;;;;;;;;;2.70;99.90;;;;;;5055099;28;20023;-71
2022/12/12 12:13:11;;;;;;;;;;;2.80;99.90;;;;;;5018811;28;209500;-70
2022/12/12 12:15:46;;;;;;;;;;;2.90;99.90;;;;;;5072460;28;19931;-70
2022/12/12 12:18:28;;;;;;;;;;;2.90;99.90;;;;;;5032048;28;207778;-71
2022/12/12 12:21:03;;;;;;;;;;;2.90;99.90;;;;;;5064204;28;19924;-71
2022/12/12 12:23:35;;;;;;;;;;;3.10;99.90;;;;;;5000611;28;200747;-70
2022/12/12 12:26:10;;;;;;;;;;;3.20;99.90;;;;;;5063113;28;20282;-71
2022/12/12 12:28:56;;;;;;;;;;;3.10;99.90;;;;;;5021528;27;211720;-70
2022/12/12 12:31:27;;;;;;;;;;;3.20;99.90;;;;;;5009336;28;19926;-71
2022/12/12 12:33:55;;;;;;;;;;;3.10;99.90;;;;;;4932969;28;147917;-71
2022/12/12 12:36:33;;;;;;;;;;;3.00;99.90;;;;;;5022526;28;19926;-71
2022/12/12 12:38:59;;;;;;;;;;;3.10;99.90;;;;;;4974013;28;81116;-71
2022/12/12 12:41:25;;;;;;;;;;;3.00;99.90;;;;;;5001645;28;19971;-70
2022/12/12 12:44:02;;;;;;;;;;;2.90;99.90;;;;;;4972840;28;120788;-71
2022/12/12 12:46:43;;;;;;;;;;;2.70;99.90;;;;;;5006357;28;19925;-70
2022/12/12 12:49:13;;;;;;;;;;;2.70;99.90;;;;;;4940326;28;206007;-70
2022/12/12 12:51:43;;;;;;;;;;;2.70;99.90;;;;;;5012165;28;20354;-72
2022/12/12 12:54:14;;;;;;;;;;;2.60;99.90;;;;;;4938644;28;207101;-71
2022/12/12 12:57:19;;;;;;;;;;;2.60;99.90;;;;;;5025924;28;19929;-70
2022/12/12 12:59:52;;;;;;;;;;;2.60;99.90;;;;;;4911374;28;206379;-71
2022/12/12 13:02:36;;;;;;;;;;;2.70;99.90;;;;;;4928407;28;202539;-72
2022/12/12 13:05:08;;;;;;;;;;;2.70;99.90;;;;;;4936945;28;19926;-69
2022/12/12 13:07:40;;;;;;;;;;;2.70;99.90;;;;;;4906329;28;208589;-71
2022/12/12 13:10:07;;;;;;;;;;;2.70;99.90;;;;;;5003223;28;19933;-70
2022/12/12 13:12:33;;;;;;;;;;;2.70;99.90;;;;;;4956298;28;207062;-70
2022/12/12 13:15:13;;;;;;;;;;;2.60;99.90;;;;;;4987833;28;19965;-70
2022/12/12 13:17:42;;;;;;;;;;;2.60;99.90;;;;;;4952368;28;177668;-71
2022/12/12 13:20:13;;;;;;;;;;;2.60;99.90;;;;;;4988193;28;19929;-70
2022/12/12 13:22:47;;;;;;;;;;;2.50;99.90;;;;;;4971893;28;145718;-71
2022/12/12 13:25:17;;;;;;;;;;;2.50;99.90;;;;;;5015234;28;19929;-71
2022/12/12 13:27:46;;;;;;;;;;;2.50;99.90;;;;;;4955311;28;85730;-71
2022/12/12 13:30:20;;;;;;;;;;;2.40;99.90;;;;;;5023436;28;19924;-70
2022/12/12 13:33:04;;;;;;;;;;;2.40;99.90;;;;;;5028500;28;206096;-70
2022/12/12 13:35:33;;;;;;;;;;;2.40;99.90;;;;;;5072629;28;19927;-71
2022/12/12 13:37:59;;;;;;;;;;;2.40;99.90;;;;;;5006918;28;206138;-71
2022/12/12 13:40:29;;;;;;;;;;;2.30;99.90;;;;;;5065319;28;20517;-71
2022/12/12 13:42:57;;;;;;;;;;;2.20;99.90;;;;;;5030342;28;123321;-70
2022/12/12 13:45:35;;;;;;;;;;;2.20;99.90;;;;;;5047229;28;19936;-70
2022/12/12 13:48:03;;;;;;;;;;;2.20;99.90;;;;;;5027505;28;107105;-70
2022/12/12 13:50:29;;;;;;;;;;;2.10;99.90;;;;;;5064539;28;20341;-71
2022/12/12 13:53:07;;;;;;;;;;;2.10;99.90;;;;;;5038924;28;207339;-70
2022/12/12 13:55:33;;;;;;;;;;;2.10;99.90;;;;;;5044973;28;20278;-71
2022/12/12 13:58:04;;;;;;;;;;;2.10;99.90;;;;;;5016661;28;206266;-70
2022/12/12 14:00:34;;;;;;;;;;;2.10;99.90;;;;;;5060122;28;19924;-70
2022/12/12 14:03:05;;;;;;;;;;;2.10;99.90;;;;;;5001115;28;192743;-70
2022/12/12 14:05:33;;;;;;;;;;;2.10;99.90;;;;;;5071462;28;19936;-70
2022/12/12 14:08:17;;;;;;;;;;;2.10;99.90;;;;;;4995386;28;207650;-70
2022/12/12 14:10:55;;;;;;;;;;;2.00;99.90;;;;;;5061935;28;19929;-70
2022/12/12 14:13:21;;;;;;;;;;;2.00;99.90;;;;;;5024393;27;210303;-70
2022/12/12 14:15:56;;;;;;;;;;;2.00;99.90;;;;;;5064729;28;19924;-70
2022/12/12 14:18:24;;;;;;;;;;;1.90;99.90;;;;;;5056849;28;116375;-71
2022/12/12 14:20:59;;;;;;;;;;;1.90;99.90;;;;;;5070031;28;19924;-71
2022/12/12 14:23:25;;;;;;;;;;;2.00;99.90;;;;;;5003461;28;206155;-70
2022/12/12 14:25:51;;;;;;;;;;;2.00;99.90;;;;;;5066126;28;20289;-70
2022/12/12 14:28:30;;;;;;;;;;;1.90;99.90;;;;;;5031335;28;225036;-70
2022/12/12 14:30:56;;;;;;;;;;;1.90;99.90;;;;;;5065429;28;19955;-70
2022/12/12 14:33:27;;;;;;;;;;;1.80;99.90;;;;;;5025920;28;207527;-72
2022/12/12 14:36:03;;;;;;;;;;;1.80;99.90;;;;;;5047234;28;19920;-71
2022/12/12 14:39:01;;;;;;;;;;;1.80;99.90;;;;;;5023062;28;136282;-71
2022/12/12 14:41:31;;;;;;;;;;;1.80;99.90;;;;;;5004013;28;19935;-71
2022/12/12 14:43:59;;;;;;;;;;;1.70;99.90;;;;;;4953138;28;130035;-70
2022/12/12 14:46:28;;;;;;;;;;;1.70;99.90;;;;;;5019532;28;19922;-71
2022/12/12 14:49:03;;;;;;;;;;;1.70;99.90;;;;;;4940124;28;194821;-71
2022/12/12 14:51:33;;;;;;;;;;;1.70;99.90;;;;;;4985653;28;19921;-71
2022/12/12 14:54:00;;;;;;;;;;;1.60;99.90;;;;;;4931453;28;209186;-71